Time,TemperatureF,DewpointF,PressureIn,WindDirection,WindDirectionDegrees,WindSpeedMPH,WindSpeedGustMPH,Humidity,HourlyPrecipIn,Conditions,Clouds,dailyrainin,SoftwareType,DateUTC
2013-03-28 01:12:00,27.0,25.0,-100.00,South,185,1.0,2.0,91,-99.99,,,-99.99,,2013-03-28 07:12:00,
2013-03-28 01:22:00,27.0,25.0,-100.00,South,185,1.0,2.0,91,-99.99,,,-99.99,,2013-03-28 07:22:00,
2013-03-28 01:32:00,26.0,24.0,-100.00,ENE,60,0.0,1.0,91,-99.99,,,0.00,,2013-03-28 07:32:00,
2013-03-28 01:42:00,26.0,24.0,-100.00,ENE,60,0.0,1.0,91,-99.99,,,0.00,,2013-03-28 07:42:00,
2013-03-28 01:52:00,26.0,24.0,-100.00,ENE,60,0.0,1.0,91,-99.99,,,0.00,,2013-03-28 07:52:00,
2013-03-28 02:02:00,26.0,24.0,-100.00,ENE,60,0.0,1.0,91,-99.99,,,0.00,,2013-03-28 08:02:00,
2013-03-28 02:12:00,27.0,25.0,-100.00,ESE,105,0.0,2.0,92,-99.99,,,0.00,,2013-03-28 08:12:00,
2013-03-28 02:21:00,27.0,25.0,-100.00,ESE,105,0.0,2.0,92,-99.99,,,0.00,,2013-03-28 08:21:00,
2013-03-28 02:32:00,27.0,25.0,-100.00,SE,140,0.0,4.0,91,-99.99,,,0.00,,2013-03-28 08:32:00,
2013-03-28 02:42:00,27.0,25.0,-100.00,SE,140,0.0,4.0,91,-99.99,,,0.00,,2013-03-28 08:42:00,
2013-03-28 02:52:00,27.0,25.0,-100.00,SE,140,0.0,4.0,91,-99.99,,,0.00,,2013-03-28 08:52:00,
2013-03-28 03:01:00,27.0,25.0,-100.00,SE,140,0.0,4.0,91,-99.99,,,0.00,,2013-03-28 09:01:00,
2013-03-28 03:12:00,26.0,24.0,-100.00,SSE,150,0.0,1.0,91,-99.99,,,0.00,,2013-03-28 09:12:00,
2013-03-28 03:22:00,26.0,24.0,-100.00,SSE,150,0.0,1.0,91,-99.99,,,0.00,,2013-03-28 09:22:00,
2013-03-28 03:32:00,26.0,24.0,-100.00,SSE,150,0.0,1.0,91,-99.99,,,0.00,,2013-03-28 09:32:00,
2013-03-28 04:02:00,24.0,22.0,-100.00,SSW,200,1.0,3.0,92,-99.99,,,0.00,,2013-03-28 10:02:00,
2013-03-28 04:12:00,25.0,23.0,-100.00,SSW,200,1.0,1.0,92,-99.99,,,0.00,,2013-03-28 10:12:00,
2013-03-28 04:22:00,25.0,23.0,-100.00,SSW,200,1.0,1.0,92,-99.99,,,0.00,,2013-03-28 10:22:00,
2013-03-28 04:32:00,24.0,22.0,-100.00,SSW,200,1.0,3.0,92,-99.99,,,0.00,,2013-03-28 10:32:00,
2013-03-28 04:43:00,24.0,22.0,-100.00,SSW,200,1.0,3.0,92,-99.99,,,0.00,,2013-03-28 10:43:00,
2013-03-28 04:52:00,24.0,22.0,-100.00,SSW,200,1.0,3.0,92,-99.99,,,0.00,,2013-03-28 10:52:00,
2013-03-28 05:12:00,24.0,22.0,-100.00,NNE,30,2.0,3.0,92,-99.99,,,0.00,,2013-03-28 11:12:00,
2013-03-28 05:22:00,24.0,22.0,-100.00,NNE,30,2.0,3.0,92,-99.99,,,0.00,,2013-03-28 11:22:00,
2013-03-28 05:32:00,23.0,22.0,-100.00,WNW,290,0.0,1.0,92,-99.99,,,0.00,,2013-03-28 11:32:00,
2013-03-28 05:43:00,23.0,22.0,-100.00,WNW,290,0.0,1.0,92,-99.99,,,0.00,,2013-03-28 11:43:00,
2013-03-28 05:52:00,23.0,22.0,-100.00,WNW,290,0.0,1.0,92,-99.99,,,0.00,,2013-03-28 11:52:00,
2013-03-28 06:12:00,23.0,21.0,-100.00,North,10,0.0,3.0,92,-99.99,,,0.00,,2013-03-28 12:12:00,
2013-03-28 06:22:00,23.0,21.0,-100.00,North,10,0.0,3.0,92,-99.99,,,0.00,,2013-03-28 12:22:00,
2013-03-28 06:32:00,23.0,21.0,-100.00,North,10,0.0,3.0,92,-99.99,,,0.00,,2013-03-28 12:32:00,
2013-03-28 07:01:00,23.0,21.0,-100.00,NE,40,0.0,1.0,93,-99.99,,,0.00,,2013-03-28 13:01:00,
2013-03-28 07:12:00,23.0,21.0,-100.00,South,180,0.0,1.0,93,-99.99,,,0.00,,2013-03-28 13:12:00,
2013-03-28 07:22:00,23.0,21.0,-100.00,South,180,0.0,1.0,93,-99.99,,,0.00,,2013-03-28 13:22:00,
2013-03-28 07:31:00,20.0,19.0,-100.00,South,190,1.0,2.0,93,-99.99,,,0.00,,2013-03-28 13:31:00,
2013-03-28 07:32:00,23.0,21.0,-100.00,NE,40,0.0,1.0,93,-99.99,,,0.00,,2013-03-28 13:32:00,
2013-03-28 07:41:00,23.0,21.0,-100.00,NE,40,0.0,1.0,93,-99.99,,,0.00,,2013-03-28 13:41:00,
2013-03-28 07:52:00,23.0,21.0,-100.00,NE,40,0.0,1.0,93,-99.99,,,0.00,,2013-03-28 13:52:00,
2013-03-28 08:12:00,20.0,19.0,-100.00,South,190,1.0,2.0,93,-99.99,,,0.00,,2013-03-28 14:12:00,
2013-03-28 08:22:00,20.0,19.0,-100.00,South,190,1.0,2.0,93,-99.99,,,0.00,,2013-03-28 14:22:00,
2013-03-28 08:32:00,23.0,21.0,-100.00,NE,55,0.0,1.0,93,-99.99,,,0.00,,2013-03-28 14:32:00,
2013-03-28 09:12:00,23.0,21.0,-100.00,NE,55,0.0,1.0,93,-99.99,,,0.00,,2013-03-28 15:12:00,
2013-03-28 09:21:00,23.0,21.0,-100.00,NE,55,0.0,1.0,93,-99.99,,,0.00,,2013-03-28 15:21:00,
2013-03-28 10:01:00,30.0,26.0,-100.00,NE,35,2.0,3.0,86,-99.99,,,0.00,,2013-03-28 16:01:00,
2013-03-28 10:12:00,27.0,24.0,-100.00,NNE,20,1.0,2.0,91,-99.99,,,0.00,,2013-03-28 16:12:00,
2013-03-28 10:32:00,30.0,26.0,-100.00,NE,35,2.0,3.0,86,-99.99,,,0.00,,2013-03-28 16:32:00,
2013-03-28 10:42:00,30.0,26.0,-100.00,NE,35,2.0,3.0,86,-99.99,,,0.00,,2013-03-28 16:42:00,
2013-03-28 10:52:00,30.0,26.0,-100.00,NE,35,2.0,3.0,86,-99.99,,,0.00,,2013-03-28 16:52:00,
2013-03-28 11:01:00,39.0,27.0,-100.00,SSW,205,2.0,4.0,62,-99.99,,,0.00,,2013-03-28 17:01:00,
2013-03-28 11:12:00,36.0,27.0,-100.00,NW,320,2.0,4.0,69,-99.99,,,0.00,,2013-03-28 17:12:00,
2013-03-28 11:22:00,36.0,27.0,-100.00,NW,320,2.0,4.0,69,-99.99,,,0.00,,2013-03-28 17:22:00,
2013-03-28 11:32:00,39.0,27.0,-100.00,SSW,205,2.0,4.0,62,-99.99,,,0.00,,2013-03-28 17:32:00,
2013-03-28 11:42:00,39.0,27.0,-100.00,SSW,205,2.0,4.0,62,-99.99,,,0.00,,2013-03-28 17:42:00,
2013-03-28 11:52:00,39.0,27.0,-100.00,SSW,205,2.0,4.0,62,-99.99,,,0.00,,2013-03-28 17:52:00,
2013-03-28 12:02:00,43.0,27.0,-100.00,WNW,290,2.0,7.0,51,-99.99,,,0.00,,2013-03-28 18:02:00,
2013-03-28 12:12:00,40.0,27.0,-100.00,West,260,7.0,12.0,60,-99.99,,,0.00,,2013-03-28 18:12:00,
2013-03-28 12:22:00,40.0,27.0,-100.00,West,260,7.0,12.0,60,-99.99,,,0.00,,2013-03-28 18:22:00,
2013-03-28 12:32:00,43.0,27.0,-100.00,WNW,290,2.0,7.0,51,-99.99,,,0.00,,2013-03-28 18:32:00,
2013-03-28 12:42:00,43.0,27.0,-100.00,WNW,290,2.0,7.0,51,-99.99,,,0.00,,2013-03-28 18:42:00,
2013-03-28 12:52:00,43.0,27.0,-100.00,WNW,290,2.0,7.0,51,-99.99,,,0.00,,2013-03-28 18:52:00,
2013-03-28 13:02:00,41.0,27.0,-100.00,WSW,255,5.0,6.0,55,-99.99,,,0.00,,2013-03-28 19:02:00,
2013-03-28 13:12:00,41.0,27.0,-100.00,WSW,245,5.0,8.0,56,-99.99,,,0.00,,2013-03-28 19:12:00,
2013-03-28 13:22:00,41.0,27.0,-100.00,WSW,245,5.0,8.0,56,-99.99,,,0.00,,2013-03-28 19:22:00,
2013-03-28 13:32:00,41.0,27.0,-100.00,WSW,255,5.0,6.0,55,-99.99,,,0.00,,2013-03-28 19:32:00,
2013-03-28 13:42:00,41.0,27.0,-100.00,WSW,255,5.0,6.0,55,-99.99,,,0.00,,2013-03-28 19:42:00,
2013-03-28 13:52:00,41.0,27.0,-100.00,WSW,255,5.0,6.0,55,-99.99,,,0.00,,2013-03-28 19:52:00,
2013-03-28 14:02:00,43.0,27.0,-100.00,WNW,300,6.0,10.0,52,-99.99,,,0.00,,2013-03-28 20:02:00,
2013-03-28 14:12:00,44.0,24.0,-100.00,SSW,210,2.0,4.0,45,-99.99,,,0.00,,2013-03-28 20:12:00,
2013-03-28 14:22:00,44.0,24.0,-100.00,SSW,210,2.0,4.0,45,-99.99,,,0.00,,2013-03-28 20:22:00,
2013-03-28 14:32:00,43.0,27.0,-100.00,WNW,300,6.0,10.0,52,-99.99,,,0.00,,2013-03-28 20:32:00,
2013-03-28 14:42:00,43.0,27.0,-100.00,WNW,300,6.0,10.0,52,-99.99,,,0.00,,2013-03-28 20:42:00,
2013-03-28 14:52:00,43.0,27.0,-100.00,WNW,300,6.0,10.0,52,-99.99,,,0.00,,2013-03-28 20:52:00,
2013-03-28 15:12:00,42.0,27.0,-100.00,WSW,240,8.0,12.0,54,-99.99,,,0.00,,2013-03-28 21:12:00,
2013-03-28 15:22:00,42.0,27.0,-100.00,WSW,240,8.0,12.0,54,-99.99,,,0.00,,2013-03-28 21:22:00,
2013-03-28 15:32:00,41.0,28.0,-100.00,SW,215,12.0,15.0,59,-99.99,,,0.00,,2013-03-28 21:32:00,
2013-03-28 15:53:00,41.0,28.0,-100.00,SW,215,12.0,15.0,59,-99.99,,,0.00,,2013-03-28 21:53:00,
2013-03-28 16:02:00,41.0,28.0,-100.00,SW,215,12.0,15.0,59,-99.99,,,0.00,,2013-03-28 22:02:00,
2013-03-28 16:12:00,41.0,29.0,-100.00,West,265,11.0,16.0,63,-99.99,,,0.00,,2013-03-28 22:12:00,
2013-03-28 16:22:00,41.0,29.0,-100.00,West,265,11.0,16.0,63,-99.99,,,0.00,,2013-03-28 22:22:00,
2013-03-28 16:32:00,37.0,30.0,-100.00,SSW,210,15.0,21.0,76,-99.99,,,0.00,,2013-03-28 22:32:00,
2013-03-28 16:52:00,37.0,30.0,-100.00,SSW,210,15.0,21.0,76,-99.99,,,0.00,,2013-03-28 22:52:00,
2013-03-28 17:01:00,43.0,29.0,-100.00,SSW,200,4.0,6.0,58,-99.99,,,0.00,,2013-03-28 23:01:00,
2013-03-28 17:12:00,41.0,34.0,-100.00,SE,125,4.0,16.0,75,-99.99,,,0.00,,2013-03-28 23:12:00,
2013-03-28 17:22:00,41.0,34.0,-100.00,SE,125,4.0,16.0,75,-99.99,,,0.00,,2013-03-28 23:22:00,
2013-03-28 17:31:00,44.0,27.0,-100.00,SSW,210,2.0,4.0,51,-99.99,,,0.00,,2013-03-28 23:31:00,
2013-03-28 17:32:00,43.0,29.0,-100.00,SSW,200,4.0,6.0,58,-99.99,,,0.00,,2013-03-28 23:32:00,
2013-03-28 17:42:00,43.0,29.0,-100.00,SSW,200,4.0,6.0,58,-99.99,,,0.00,,2013-03-28 23:42:00,
2013-03-28 17:52:00,43.0,29.0,-100.00,SSW,200,4.0,6.0,58,-99.99,,,0.00,,2013-03-28 23:52:00,
2013-03-28 18:12:00,44.0,27.0,-100.00,SSW,210,2.0,4.0,51,-99.99,,,0.00,,2013-03-29 00:12:00,
2013-03-28 18:22:00,44.0,27.0,-100.00,SSW,210,2.0,4.0,51,-99.99,,,0.00,,2013-03-29 00:22:00,
2013-03-28 19:12:00,42.0,29.0,-100.00,SW,215,4.0,6.0,60,-99.99,,,0.00,,2013-03-29 01:12:00,
2013-03-28 19:22:00,42.0,29.0,-100.00,SW,215,4.0,6.0,60,-99.99,,,0.00,,2013-03-29 01:22:00,
2013-03-28 19:32:00,36.0,33.0,-100.00,NNW,340,4.0,12.0,88,-99.99,,,0.00,,2013-03-29 01:32:00,
2013-03-28 19:52:00,36.0,33.0,-100.00,NNW,340,4.0,12.0,88,-99.99,,,0.00,,2013-03-29 01:52:00,
2013-03-28 20:01:00,35.0,32.0,-100.00,ESE,110,3.0,5.0,89,-99.99,,,0.00,,2013-03-29 02:01:00,
2013-03-28 20:12:00,36.0,33.0,-100.00,NNE,30,6.0,8.0,89,-99.99,,,0.00,,2013-03-29 02:12:00,
2013-03-28 20:22:00,36.0,33.0,-100.00,NNE,30,6.0,8.0,89,-99.99,,,0.00,,2013-03-29 02:22:00,
2013-03-28 20:32:00,35.0,32.0,-100.00,ESE,110,3.0,5.0,89,-99.99,,,0.00,,2013-03-29 02:32:00,
2013-03-28 20:42:00,35.0,32.0,-100.00,ESE,110,3.0,5.0,89,-99.99,,,0.00,,2013-03-29 02:42:00,
2013-03-28 20:52:00,35.0,32.0,-100.00,ESE,110,3.0,5.0,89,-99.99,,,0.00,,2013-03-29 02:52:00,
2013-03-28 21:02:00,34.0,32.0,-100.00,SW,235,0.0,1.0,92,-99.99,,,0.00,,2013-03-29 03:02:00,
2013-03-28 21:12:00,34.0,32.0,-100.00,NNE,15,2.0,3.0,90,-99.99,,,0.00,,2013-03-29 03:12:00,
2013-03-28 21:21:00,34.0,32.0,-100.00,NNE,15,2.0,3.0,90,-99.99,,,0.00,,2013-03-29 03:21:00,
2013-03-28 21:32:00,34.0,32.0,-100.00,SW,235,0.0,1.0,92,-99.99,,,0.00,,2013-03-29 03:32:00,
2013-03-28 21:43:00,34.0,32.0,-100.00,SW,235,0.0,1.0,92,-99.99,,,0.00,,2013-03-29 03:43:00,
2013-03-28 21:52:00,34.0,32.0,-100.00,SW,235,0.0,1.0,92,-99.99,,,0.00,,2013-03-29 03:52:00,
2013-03-28 22:02:00,33.0,32.0,-100.00,SW,235,1.0,1.0,93,-99.99,,,0.00,,2013-03-29 04:02:00,
2013-03-28 22:12:00,34.0,32.0,-100.00,East,85,0.0,4.0,93,-99.99,,,0.00,,2013-03-29 04:12:00,
2013-03-28 22:22:00,34.0,32.0,-100.00,East,85,0.0,4.0,93,-99.99,,,0.00,,2013-03-29 04:22:00,
2013-03-28 22:33:00,33.0,32.0,-100.00,SW,235,1.0,1.0,93,-99.99,,,0.00,,2013-03-29 04:33:00,
2013-03-28 22:43:00,33.0,32.0,-100.00,SW,235,1.0,1.0,93,-99.99,,,0.00,,2013-03-29 04:43:00,
2013-03-28 22:52:00,33.0,32.0,-100.00,SW,235,1.0,1.0,93,-99.99,,,0.00,,2013-03-29 04:52:00,
2013-03-28 23:02:00,32.0,31.0,-100.00,NE,45,1.0,2.0,94,-99.99,,,0.00,,2013-03-29 05:02:00,
2013-03-28 23:12:00,33.0,32.0,-100.00,NE,35,1.0,1.0,94,-99.99,,,0.00,,2013-03-29 05:12:00,
2013-03-28 23:23:00,33.0,32.0,-100.00,NE,35,1.0,1.0,94,-99.99,,,0.00,,2013-03-29 05:23:00,
2013-03-28 23:32:00,32.0,31.0,-100.00,NE,45,1.0,2.0,94,-99.99,,,0.00,,2013-03-29 05:32:00,
2013-03-28 23:43:00,32.0,31.0,-100.00,NE,45,1.0,2.0,94,-99.99,,,0.00,,2013-03-29 05:43:00,
2013-03-28 23:52:00,32.0,31.0,-100.00,NE,45,1.0,2.0,94,-99.99,,,0.00,,2013-03-29 05:52:00,